createdAt,value
2023-04-09T00:02:16.792Z,4.67
2023-04-09T00:04:46.062Z,4.74
2023-04-09T00:07:12.553Z,4.81
2023-04-09T00:09:41.388Z,4.82
2023-04-09T00:12:07.971Z,4.78
2023-04-09T00:14:36.739Z,4.82
2023-04-09T00:17:03.335Z,4.86
2023-04-09T00:19:29.920Z,4.82
2023-04-09T00:21:56.813Z,4.83
2023-04-09T00:24:28.258Z,4.83
2023-04-09T00:26:54.819Z,4.84
2023-04-09T00:29:21.425Z,4.88
2023-04-09T00:31:48.165Z,4.84
2023-04-09T00:34:14.850Z,4.81
2023-04-09T00:36:41.418Z,4.70
2023-04-09T00:39:10.462Z,4.83
2023-04-09T00:41:39.498Z,4.86
2023-04-09T00:44:08.342Z,4.79
2023-04-09T00:46:34.900Z,4.84
2023-04-09T00:49:01.483Z,4.94
2023-04-09T00:51:35.939Z,4.79
2023-04-09T00:54:04.697Z,4.43
2023-04-09T00:56:31.507Z,4.41
2023-04-09T00:59:00.765Z,4.21
2023-04-09T01:01:29.559Z,4.18
2023-04-09T01:03:58.954Z,4.05
2023-04-09T01:06:37.975Z,4.00
2023-04-09T01:09:07.596Z,3.83
2023-04-09T01:11:42.214Z,3.80
2023-04-09T01:14:24.883Z,3.64
2023-04-09T01:17:00.196Z,3.76
2023-04-09T01:19:29.719Z,3.72
2023-04-09T01:21:57.856Z,3.76
2023-04-09T01:24:27.472Z,3.92
2023-04-09T01:27:03.088Z,3.86
2023-04-09T01:29:35.741Z,3.85
2023-04-09T01:32:03.746Z,3.97
2023-04-09T01:34:33.601Z,3.68
2023-04-09T01:37:03.446Z,3.66
2023-04-09T01:39:33.293Z,3.86
2023-04-09T01:42:00.915Z,3.92
2023-04-09T01:44:28.201Z,3.97
2023-04-09T01:46:56.144Z,3.91
2023-04-09T01:49:23.391Z,4.04
2023-04-09T01:51:50.513Z,4.13
2023-04-09T01:54:17.129Z,4.15
2023-04-09T01:56:48.238Z,4.29
2023-04-09T01:59:15.231Z,4.43
2023-04-09T02:01:49.182Z,4.46
2023-04-09T02:04:25.738Z,4.55
2023-04-09T02:06:55.338Z,4.51
2023-04-09T02:09:24.693Z,4.50
2023-04-09T02:11:52.296Z,4.57
2023-04-09T02:14:21.920Z,4.50
2023-04-09T02:16:48.594Z,4.47
2023-04-09T02:19:18.128Z,4.32
2023-04-09T02:21:49.477Z,4.32
2023-04-09T02:24:16.073Z,4.17
2023-04-09T02:26:42.632Z,4.24
2023-04-09T02:29:09.200Z,4.37
2023-04-09T02:31:35.854Z,4.46
2023-04-09T02:34:04.531Z,4.41
2023-04-09T02:36:36.232Z,4.46
2023-04-09T02:39:02.792Z,4.55
2023-04-09T02:41:29.335Z,4.55
2023-04-09T02:43:55.946Z,4.30
2023-04-09T02:46:24.567Z,4.17
2023-04-09T02:48:55.913Z,4.31
2023-04-09T02:51:25.018Z,4.44
2023-04-09T02:53:51.614Z,4.47
2023-04-09T02:56:20.595Z,4.65
2023-04-09T02:58:49.458Z,4.63
2023-04-09T03:01:16.056Z,4.51
2023-04-09T03:03:43.267Z,4.55
2023-04-09T03:06:12.392Z,4.58
2023-04-09T03:08:39.029Z,4.45
2023-04-09T03:11:07.800Z,4.29
2023-04-09T03:13:36.814Z,4.10
2023-04-09T03:16:03.524Z,3.83
2023-04-09T03:18:30.183Z,3.62
2023-04-09T03:20:56.770Z,3.47
2023-04-09T03:23:23.356Z,3.63
2023-04-09T03:25:52.133Z,3.46
2023-04-09T03:28:21.389Z,3.51
2023-04-09T03:30:47.942Z,3.33
2023-04-09T03:33:14.519Z,3.32
2023-04-09T03:35:45.667Z,3.57
2023-04-09T03:38:14.681Z,3.67
2023-04-09T03:40:43.711Z,3.84
2023-04-09T03:43:12.574Z,3.89
2023-04-09T03:45:43.678Z,3.86
2023-04-09T03:48:15.051Z,4.01
2023-04-09T03:50:42.205Z,4.03
2023-04-09T03:53:11.165Z,4.17
2023-04-09T03:55:40.643Z,4.26
2023-04-09T03:58:09.425Z,4.17
2023-04-09T04:00:39.006Z,4.31
2023-04-09T04:03:08.062Z,4.15
2023-04-09T04:05:34.788Z,4.35
2023-04-09T04:08:01.419Z,4.25
2023-04-09T04:10:28.017Z,4.16
2023-04-09T04:12:54.596Z,4.22
2023-04-09T04:15:23.899Z,4.01
2023-04-09T04:17:50.472Z,3.75
2023-04-09T04:20:17.129Z,3.65
2023-04-09T04:22:46.122Z,3.59
2023-04-09T04:25:12.757Z,3.69
2023-04-09T04:27:45.064Z,3.79
2023-04-09T04:30:11.762Z,3.66
2023-04-09T04:32:38.471Z,3.75
2023-04-09T04:35:07.384Z,3.81
2023-04-09T04:37:36.154Z,4.02
2023-04-09T04:40:03.546Z,3.90
2023-04-09T04:42:30.168Z,4.14
2023-04-09T04:44:56.753Z,4.21
2023-04-09T04:47:23.443Z,4.42
2023-04-09T04:49:55.301Z,4.20
2023-04-09T04:52:21.946Z,4.06
2023-04-09T04:54:48.472Z,4.26
2023-04-09T04:57:17.356Z,4.10
2023-04-09T04:59:46.050Z,4.09
2023-04-09T05:02:12.763Z,3.93
2023-04-09T05:04:39.670Z,3.79
2023-04-09T05:07:08.741Z,3.75
2023-04-09T05:09:35.501Z,3.80
2023-04-09T05:12:04.738Z,3.90
2023-04-09T05:14:31.416Z,3.75
2023-04-09T05:16:58.074Z,3.75
2023-04-09T05:19:24.732Z,3.94
2023-04-09T05:21:51.271Z,3.93
2023-04-09T05:24:17.973Z,3.75
2023-04-09T05:26:44.518Z,3.90
2023-04-09T05:29:13.391Z,3.90
2023-04-09T05:31:43.156Z,3.82
2023-04-09T05:34:09.870Z,4.03
2023-04-09T05:36:36.450Z,4.11
2023-04-09T05:39:03.028Z,4.12
2023-04-09T05:41:29.634Z,4.35
2023-04-09T05:44:00.527Z,4.29
2023-04-09T05:46:27.621Z,4.21
2023-04-09T05:48:54.429Z,4.21
2023-04-09T05:51:21.122Z,4.55
2023-04-09T05:53:50.452Z,4.62
2023-04-09T05:56:19.718Z,4.79
2023-04-09T05:58:48.583Z,4.80
2023-04-09T06:01:15.434Z,4.43
2023-04-09T06:03:42.185Z,4.49
2023-04-09T06:06:11.004Z,4.59
2023-04-09T06:08:37.513Z,4.92
2023-04-09T06:11:08.770Z,4.85
2023-04-09T06:13:37.526Z,4.95
2023-04-09T06:16:08.659Z,4.75
2023-04-09T06:18:35.663Z,4.83
2023-04-09T06:21:07.906Z,4.99
2023-04-09T06:23:36.317Z,4.95
2023-04-09T06:26:03.219Z,4.73
2023-04-09T06:28:30.083Z,5.04
2023-04-09T06:30:56.699Z,4.97
2023-04-09T06:33:23.583Z,4.92
2023-04-09T06:35:52.536Z,4.88
2023-04-09T06:38:19.164Z,4.97
2023-04-09T06:40:48.705Z,5.00
2023-04-09T06:43:17.775Z,5.13
2023-04-09T06:45:44.375Z,5.26
2023-04-09T06:48:16.197Z,4.98
2023-04-09T06:50:45.619Z,5.32
2023-04-09T06:53:15.201Z,5.22
2023-04-09T06:55:42.148Z,5.06
2023-04-09T06:58:08.709Z,4.85
2023-04-09T07:00:35.480Z,5.24
2023-04-09T07:03:09.200Z,5.33
2023-04-09T07:05:38.733Z,5.18
2023-04-09T07:08:07.958Z,5.28
2023-04-09T07:10:34.684Z,5.27
2023-04-09T07:13:01.638Z,5.44
2023-04-09T07:15:28.359Z,5.59
2023-04-09T07:17:54.986Z,5.66
2023-04-09T07:20:21.670Z,5.72
2023-04-09T07:22:50.587Z,5.87
2023-04-09T07:25:17.162Z,6.00
2023-04-09T07:27:44.894Z,5.96
2023-04-09T07:30:13.762Z,6.08
2023-04-09T07:32:40.433Z,6.11
2023-04-09T07:35:09.927Z,6.00
2023-04-09T07:37:36.591Z,6.16
2023-04-09T07:40:06.024Z,6.13
2023-04-09T07:42:41.244Z,6.18
2023-04-09T07:45:11.185Z,6.10
2023-04-09T07:47:41.588Z,6.42
2023-04-09T07:50:11.629Z,6.41
2023-04-09T07:52:40.917Z,6.34
2023-04-09T07:55:07.443Z,6.52
2023-04-09T07:57:34.345Z,6.56
2023-04-09T08:00:03.984Z,6.52
2023-04-09T08:02:35.521Z,6.59
2023-04-09T08:05:02.621Z,6.76
2023-04-09T08:07:29.272Z,6.63
2023-04-09T08:09:58.277Z,6.69
2023-04-09T08:12:27.184Z,6.97
2023-04-09T08:14:56.396Z,6.93
2023-04-09T08:17:27.806Z,7.04
2023-04-09T08:19:54.618Z,7.03
2023-04-09T08:22:21.430Z,7.12
2023-04-09T08:24:52.110Z,7.20
2023-04-09T08:27:22.097Z,7.39
2023-04-09T08:29:49.117Z,7.27
2023-04-09T08:32:16.237Z,7.09
2023-04-09T08:34:45.604Z,6.98
2023-04-09T08:37:12.254Z,7.28
2023-04-09T08:39:38.828Z,7.32
2023-04-09T08:42:08.888Z,7.58
2023-04-09T08:44:35.493Z,7.77
2023-04-09T08:47:05.313Z,7.91
2023-04-09T08:49:31.994Z,7.95
2023-04-09T08:52:01.086Z,8.02
2023-04-09T08:54:39.756Z,7.87
2023-04-09T08:57:09.129Z,7.92
2023-04-09T08:59:48.038Z,7.51
2023-04-09T09:06:22.224Z,7.87
2023-04-09T09:09:12.300Z,7.88
2023-04-09T09:19:03.675Z,7.93
2023-04-09T09:21:30.667Z,8.03
2023-04-09T09:23:58.404Z,8.27
2023-04-09T09:26:29.428Z,8.25
2023-04-09T09:28:58.996Z,8.24
2023-04-09T09:31:26.467Z,8.19
2023-04-09T09:33:55.639Z,8.28
2023-04-09T09:36:32.166Z,8.20
2023-04-09T09:39:03.844Z,7.80
2023-04-09T09:41:30.781Z,7.84
2023-04-09T09:43:57.811Z,8.29
2023-04-09T09:46:31.177Z,8.41
2023-04-09T09:48:57.881Z,8.11
2023-04-09T09:51:27.898Z,8.37
2023-04-09T09:53:58.326Z,8.32
2023-04-09T09:56:34.744Z,8.43
2023-04-09T09:59:03.942Z,8.05
2023-04-09T10:01:30.887Z,8.40
2023-04-09T10:04:05.404Z,8.43
2023-04-09T10:06:34.317Z,8.52
2023-04-09T10:09:06.882Z,8.55
2023-04-09T10:11:36.603Z,8.55
2023-04-09T10:14:07.999Z,8.68
2023-04-09T10:16:37.267Z,8.62
2023-04-09T10:19:08.231Z,8.63
2023-04-09T10:22:05.719Z,8.55
2023-04-09T10:24:35.681Z,8.60
2023-04-09T10:27:17.078Z,8.62
2023-04-09T10:29:45.890Z,8.65
2023-04-09T10:32:13.868Z,8.62
2023-04-09T10:34:43.939Z,8.71
2023-04-09T10:37:31.836Z,8.58
2023-04-09T10:39:58.822Z,8.71
2023-04-09T10:42:43.184Z,8.96
2023-04-09T10:45:11.924Z,8.86
2023-04-09T10:47:46.641Z,8.92
2023-04-09T10:50:16.613Z,8.72
2023-04-09T10:52:45.791Z,8.71
2023-04-09T10:55:31.540Z,8.66
2023-04-09T10:58:00.933Z,9.13
2023-04-09T11:00:27.541Z,9.32
2023-04-09T11:03:03.052Z,9.19
2023-04-09T11:05:43.372Z,9.28
2023-04-09T11:08:09.985Z,9.23
2023-04-09T11:10:38.090Z,9.17
2023-04-09T11:13:05.867Z,9.13
2023-04-09T11:15:37.581Z,9.40
2023-04-09T11:18:06.908Z,9.56
2023-04-09T11:20:36.785Z,9.51
2023-04-09T11:23:06.557Z,9.45
2023-04-09T11:25:35.115Z,9.60
2023-04-09T11:28:04.349Z,9.21
2023-04-09T11:30:31.422Z,9.37
2023-04-09T11:33:00.807Z,8.92
2023-04-09T11:35:27.454Z,8.78
2023-04-09T11:37:54.218Z,9.00
2023-04-09T11:40:23.688Z,9.24
2023-04-09T11:42:57.677Z,9.40
2023-04-09T11:45:33.631Z,9.49
2023-04-09T11:48:02.034Z,9.73
2023-04-09T11:50:31.585Z,9.70
2023-04-09T11:52:58.307Z,9.44
2023-04-09T11:55:27.414Z,9.64
2023-04-09T11:58:01.210Z,9.64
2023-04-09T12:00:34.736Z,9.81
2023-04-09T12:03:06.449Z,9.53
2023-04-09T12:05:37.157Z,9.64
2023-04-09T12:08:08.626Z,9.61
2023-04-09T12:10:38.778Z,9.60
2023-04-09T12:13:10.582Z,9.70
2023-04-09T12:15:43.516Z,9.76
2023-04-09T12:18:16.414Z,9.52
2023-04-09T12:20:47.792Z,9.75
2023-04-09T12:23:14.754Z,9.98
2023-04-09T12:25:45.733Z,10.01
2023-04-09T12:28:18.598Z,9.95
2023-04-09T12:30:49.146Z,10.19
2023-04-09T12:33:15.902Z,10.15
2023-04-09T12:35:47.278Z,10.25
2023-04-09T12:38:18.708Z,10.31
2023-04-09T12:40:45.460Z,10.38
2023-04-09T12:43:14.399Z,10.34
2023-04-09T12:45:41.062Z,10.38
2023-04-09T12:48:08.158Z,10.17
2023-04-09T12:50:39.737Z,10.25
2023-04-09T12:53:12.012Z,10.35
2023-04-09T12:55:39.478Z,10.57
2023-04-09T12:58:07.538Z,10.72
2023-04-09T13:00:34.437Z,10.81
2023-04-09T13:03:01.337Z,11.04
2023-04-09T13:05:31.525Z,11.08
2023-04-09T13:07:58.135Z,10.90
2023-04-09T13:10:27.855Z,11.17
2023-04-09T13:12:57.118Z,11.24
2023-04-09T13:15:57.794Z,11.18
2023-04-09T13:18:24.426Z,10.84
2023-04-09T13:20:57.966Z,11.01
2023-04-09T13:23:27.103Z,11.06
2023-04-09T13:25:53.543Z,11.21
2023-04-09T13:28:20.273Z,11.44
2023-04-09T13:30:53.618Z,11.10
2023-04-09T13:33:24.861Z,10.82
2023-04-09T13:35:51.716Z,10.67
2023-04-09T13:38:18.462Z,10.59
2023-04-09T13:40:45.227Z,10.17
2023-04-09T13:43:14.387Z,10.53
2023-04-09T13:45:40.926Z,10.93
2023-04-09T13:48:07.585Z,11.04
2023-04-09T13:50:34.314Z,10.55
2023-04-09T13:53:05.560Z,10.83
2023-04-09T13:55:34.854Z,11.02
2023-04-09T13:58:01.492Z,11.37
2023-04-09T14:00:28.109Z,11.55
2023-04-09T14:02:54.789Z,11.28
2023-04-09T14:05:21.411Z,11.62
2023-04-09T14:07:50.942Z,12.03
2023-04-09T14:10:17.919Z,11.97
2023-04-09T14:12:44.513Z,12.21
2023-04-09T14:15:16.411Z,12.26
2023-04-09T14:17:46.126Z,12.31
2023-04-09T14:20:12.925Z,12.49
2023-04-09T14:22:39.799Z,12.56
2023-04-09T14:25:09.069Z,12.27
2023-04-09T14:27:35.716Z,12.31
2023-04-09T14:30:03.558Z,12.24
2023-04-09T14:32:30.450Z,12.20
2023-04-09T14:34:57.070Z,12.14
2023-04-09T14:37:26.290Z,12.27
2023-04-09T14:39:52.910Z,12.58
2023-04-09T14:42:19.554Z,12.42
2023-04-09T14:44:46.139Z,12.27
2023-04-09T14:47:16.123Z,12.14
2023-04-09T14:49:45.232Z,12.22
2023-04-09T14:52:14.228Z,12.09
2023-04-09T14:54:43.778Z,12.23
2023-04-09T14:57:10.389Z,12.25
2023-04-09T14:59:36.988Z,12.50
2023-04-09T15:02:03.796Z,12.46
2023-04-09T15:04:35.463Z,12.31
2023-04-09T15:07:05.521Z,12.29
2023-04-09T15:09:36.784Z,12.45
2023-04-09T15:12:09.609Z,12.42
2023-04-09T15:14:36.749Z,12.26
2023-04-09T15:17:03.461Z,12.36
2023-04-09T15:19:31.866Z,12.49
2023-04-09T15:21:58.483Z,12.16
2023-04-09T15:24:25.835Z,12.01
2023-04-09T15:26:57.896Z,11.95
2023-04-09T15:29:26.726Z,11.95
2023-04-09T15:31:53.491Z,11.67
2023-04-09T15:34:20.534Z,11.61
2023-04-09T15:36:47.553Z,11.63
2023-04-09T15:39:14.238Z,11.85
2023-04-09T15:41:40.874Z,11.92
2023-04-09T15:44:09.668Z,11.81
2023-04-09T15:46:38.018Z,11.35
2023-04-09T15:49:05.061Z,11.28
2023-04-09T15:51:31.750Z,11.50
2023-04-09T15:53:59.366Z,11.54
2023-04-09T15:56:25.964Z,11.48
2023-04-09T15:58:55.191Z,11.12
2023-04-09T16:01:24.342Z,11.02
2023-04-09T16:03:53.255Z,11.04
2023-04-09T16:06:20.054Z,10.97
2023-04-09T16:08:48.997Z,11.00
2023-04-09T16:11:15.685Z,11.01
2023-04-09T16:13:47.062Z,10.94
2023-04-09T16:16:16.147Z,11.00
2023-04-09T16:18:42.675Z,10.97
2023-04-09T16:21:09.364Z,10.55
2023-04-09T16:23:36.000Z,10.48
2023-04-09T16:26:04.991Z,10.59
2023-04-09T16:28:31.647Z,10.51
2023-04-09T16:31:00.001Z,10.21
2023-04-09T16:33:26.726Z,10.12
2023-04-09T16:35:53.357Z,10.42
2023-04-09T16:38:20.072Z,10.47
2023-04-09T16:40:46.741Z,10.46
2023-04-09T16:43:13.306Z,9.90
2023-04-09T16:45:44.703Z,10.03
2023-04-09T16:48:13.625Z,10.08
2023-04-09T16:50:40.465Z,9.87
2023-04-09T16:53:07.842Z,9.82
2023-04-09T16:55:34.996Z,9.75
2023-04-09T16:58:01.755Z,9.78
2023-04-09T17:00:28.491Z,9.80
2023-04-09T17:03:00.335Z,9.43
2023-04-09T17:05:29.314Z,9.49
2023-04-09T17:07:58.197Z,9.34
2023-04-09T17:10:27.941Z,9.70
2023-04-09T17:12:54.794Z,9.65
2023-04-09T17:15:25.112Z,9.26
2023-04-09T17:17:53.692Z,9.18
2023-04-09T17:20:24.290Z,9.03
2023-04-09T17:22:53.144Z,9.18
2023-04-09T17:25:22.542Z,9.18
2023-04-09T17:27:49.139Z,9.16
2023-04-09T17:30:18.793Z,9.08
2023-04-09T17:32:45.905Z,8.86
2023-04-09T17:35:12.699Z,9.11
2023-04-09T17:37:41.548Z,8.78
2023-04-09T17:40:08.861Z,8.80
2023-04-09T17:42:41.308Z,8.78
2023-04-09T17:45:11.850Z,8.75
2023-04-09T17:47:41.471Z,8.68
2023-04-09T17:50:08.725Z,8.61
2023-04-09T17:52:38.742Z,8.72
2023-04-09T17:55:12.456Z,8.70
2023-04-09T17:57:42.886Z,8.57
2023-04-09T18:00:10.440Z,8.55
2023-04-09T18:02:40.153Z,8.56
2023-04-09T18:05:10.835Z,8.61
2023-04-09T18:07:42.380Z,8.80
2023-04-09T18:10:09.233Z,8.69
2023-04-09T18:12:35.917Z,8.87
2023-04-09T18:15:03.645Z,8.86
2023-04-09T18:17:30.390Z,8.69
2023-04-09T18:19:59.992Z,8.43
2023-04-09T18:22:29.157Z,8.56
2023-04-09T18:24:55.983Z,8.45
2023-04-09T18:27:27.358Z,8.34
2023-04-09T18:29:53.986Z,8.28
2023-04-09T18:32:23.636Z,8.37
2023-04-09T18:34:50.298Z,8.32
2023-04-09T18:37:17.283Z,8.47
2023-04-09T18:39:44.284Z,8.23
2023-04-09T18:42:10.889Z,8.22
2023-04-09T18:44:37.709Z,8.07
2023-04-09T18:47:05.931Z,8.10
2023-04-09T18:49:33.448Z,7.90
2023-04-09T18:52:05.393Z,8.00
2023-04-09T18:54:34.950Z,7.82
2023-04-09T18:57:04.200Z,7.82
2023-04-09T18:59:31.616Z,7.93
2023-04-09T19:02:05.058Z,8.02
2023-04-09T19:04:39.608Z,7.74
2023-04-09T19:07:06.730Z,7.65
2023-04-09T19:09:33.616Z,7.73
2023-04-09T19:12:02.722Z,7.46
2023-04-09T19:14:33.863Z,7.46
2023-04-09T19:17:02.462Z,7.32
2023-04-09T19:19:32.483Z,7.38
2023-04-09T19:21:59.465Z,7.32
2023-04-09T19:24:26.163Z,7.38
2023-04-09T19:26:53.360Z,7.08
2023-04-09T19:29:20.311Z,7.13
2023-04-09T19:31:49.893Z,7.18
2023-04-09T19:34:18.737Z,7.12
2023-04-09T19:36:45.369Z,6.99
2023-04-09T19:39:17.235Z,7.03
2023-04-09T19:41:43.810Z,7.08
2023-04-09T19:44:12.971Z,7.07
2023-04-09T19:46:39.586Z,6.92
2023-04-09T19:49:06.369Z,6.92
2023-04-09T19:51:33.648Z,7.00
2023-04-09T19:54:00.637Z,7.11
2023-04-09T19:56:29.627Z,7.33
2023-04-09T19:58:56.407Z,7.40
2023-04-09T20:01:25.329Z,7.32
2023-04-09T20:03:52.293Z,7.32
2023-04-09T20:06:21.931Z,7.48
2023-04-09T20:08:51.135Z,7.59
2023-04-09T20:11:36.541Z,7.70
2023-04-09T20:18:12.856Z,7.78
2023-04-09T20:20:48.176Z,7.86
2023-04-09T20:27:04.727Z,7.57
2023-04-09T20:35:58.872Z,7.24
2023-04-09T20:38:25.678Z,7.12
2023-04-09T20:40:57.132Z,7.12
2023-04-09T20:47:12.398Z,6.71
2023-04-09T20:56:13.128Z,6.58
2023-04-09T20:58:39.842Z,6.63
2023-04-09T21:01:10.370Z,6.54
2023-04-09T21:03:46.138Z,6.55
2023-04-09T21:06:25.593Z,6.61
2023-04-09T21:08:58.676Z,6.61
2023-04-09T21:11:35.739Z,6.54
2023-04-09T21:14:13.525Z,6.50
2023-04-09T21:16:43.210Z,6.63
2023-04-09T21:19:12.937Z,6.72
2023-04-09T21:21:48.798Z,6.77
2023-04-09T21:24:23.369Z,6.76
2023-04-09T21:26:55.647Z,6.64
2023-04-09T21:29:22.496Z,6.48
2023-04-09T21:31:49.810Z,6.56
2023-04-09T21:34:16.580Z,6.38
2023-04-09T21:36:46.230Z,6.34
2023-04-09T21:39:13.106Z,6.31
2023-04-09T21:41:39.676Z,6.27
2023-04-09T21:44:08.701Z,6.03
2023-04-09T21:46:41.764Z,5.95
2023-04-09T21:49:08.435Z,5.89
2023-04-09T21:51:35.500Z,6.00
2023-04-09T21:54:09.781Z,6.00
2023-04-09T21:56:38.853Z,5.99
2023-04-09T21:59:07.678Z,6.05
2023-04-09T22:01:36.602Z,6.07
2023-04-09T22:04:03.743Z,6.09
2023-04-09T22:06:33.196Z,6.22
2023-04-09T22:09:02.455Z,6.17
2023-04-09T22:11:31.803Z,6.30
2023-04-09T22:14:00.757Z,6.39
2023-04-09T22:16:29.834Z,6.38
2023-04-09T22:18:57.056Z,6.25
2023-04-09T22:21:24.080Z,5.94
2023-04-09T22:23:53.052Z,6.02
2023-04-09T22:26:20.031Z,5.98
2023-04-09T22:29:08.333Z,5.97
2023-04-09T22:31:34.937Z,6.02
2023-04-09T22:34:17.199Z,6.05
2023-04-09T22:36:47.125Z,5.95
2023-04-09T22:39:16.388Z,5.96
2023-04-09T22:41:44.964Z,5.93
2023-04-09T22:44:11.770Z,5.94
2023-04-09T22:46:40.886Z,5.84
2023-04-09T22:49:08.195Z,5.80
2023-04-09T22:51:35.098Z,5.94
2023-04-09T22:54:02.452Z,5.88
2023-04-09T22:56:33.238Z,5.86
2023-04-09T22:59:00.057Z,5.76
2023-04-09T23:01:27.163Z,5.68
2023-04-09T23:03:54.064Z,5.62
2023-04-09T23:06:25.747Z,5.58
2023-04-09T23:08:52.807Z,5.60
2023-04-09T23:11:19.912Z,5.56
2023-04-09T23:13:48.974Z,5.53
2023-04-09T23:16:15.888Z,5.44
2023-04-09T23:18:42.541Z,5.43
2023-04-09T23:21:12.644Z,5.33
2023-04-09T23:23:39.364Z,5.47
2023-04-09T23:26:06.593Z,5.52
2023-04-09T23:28:33.375Z,5.47
2023-04-09T23:31:02.287Z,5.49
2023-04-09T23:33:28.979Z,5.33
2023-04-09T23:35:55.699Z,5.44
2023-04-09T23:38:24.471Z,5.49
2023-04-09T23:40:51.250Z,5.34
2023-04-09T23:43:20.355Z,5.37
2023-04-09T23:45:47.197Z,5.29
2023-04-09T23:48:16.294Z,5.16
2023-04-09T23:50:42.925Z,5.20
2023-04-09T23:53:11.970Z,5.10
2023-04-09T23:55:42.472Z,5.02
2023-04-09T23:58:09.890Z,4.95
